LIRA/CIA METAR and TAF weather

Enter ICAO airport designator
Station Type Date Time Source
LIRA METAR 2019/02/18 03:50 UTC NOAA

LIRA 180350Z 09006KT 8000 BKN025 08/06 Q1026


Station Type Date Time Source
LIRA Decoded METAR 2019/02/18 03:50 UTC NOAA

Roma / Ciampino, Italy (LIRA) 41-47N 012-35E 105M
Feb 17, 2019 - 10:50 PM EST / 2019.02.18 0350 UTC
Wind: from the E (090 degrees) at 7 MPH (6 KT):0
Visibility: 4 mile(s):0
Sky conditions: mostly cloudy
Temperature: 46 F (8 C)
Dew Point: 42 F (6 C)
Relative Humidity: 87%
Pressure (altimeter): 30.30 in. Hg (1026 hPa)
ob: LIRA 180350Z 09006KT 8000 BKN025 08/06 Q1026
cycle: 4

Station Type Date Time Source
LIRA TAF 2019/02/17 18:21 UTC NOAA

TAF LIRA 171700Z 1718/1818 VRB05KT CAVOK
TEMPO 1800/1806 3000 BR


Example: see airport list